Terminal Aerodrome Forecast
Issued by NWS

Home | Current Version | Previous Version | Text Only | Print | Product List | Glossary On
Versions: 1 2 3 4 5 6 7 8 9 10 11 12 13 14 15 16 17 18 19 20 21 22 23 24 25 26 27 28
000
FTUS43 KDMX 301135 AAA
TAFFOD
TAF AMD
KFOD 301135Z 3012/3112 VRB03KT P6SM FEW090 SCT120
     FM302200 17009KT P6SM VCTS BKN090CB BKN250
     FM310500 18009KT 5SM -TSRA BR SCT025CB OVC040=

USA.gov is the U.S. government's official web portal to all federal, state and local government web resources and services.